Time;durP1;ratioP1;P1;durP2;ratioP2;P2;SDS_P1;SDS_P2;PMS_P1;PMS_P2;Temp;Humidity;BMP_temperature;BMP_pressure;BME280_temperature;BME280_humidity;BME280_pressure;Samples;Min_cycle;Max_cycle;Signal;HPM_P1;HPM_P2
2023/11/17 00:02:16;;;;;;;;;;;;;;;28.63;73.12;101276.03;5098278;27;66445;-36
2023/11/17 00:04:47;;;;;;;;;;;;;;;28.68;74.20;101276.31;5099242;27;69924;-37
2023/11/17 00:07:17;;;;;;;;;;;;;;;28.73;74.28;101263.06;5090571;27;65706;-37
2023/11/17 00:09:48;;;;;;;;;;;;;;;28.78;75.15;101265.16;5097621;27;68892;-34
2023/11/17 00:12:18;;;;;;;;;;;;;;;28.80;73.46;101268.50;5094397;27;66994;-33
2023/11/17 00:14:48;;;;;;;;;;;;;;;28.78;71.27;101274.09;5099447;27;70737;-33
2023/11/17 00:17:18;;;;;;;;;;;;;;;28.81;69.24;101280.97;5101095;27;66654;-34
2023/11/17 00:19:48;;;;;;;;;;;;;;;28.83;68.16;101285.13;5101233;27;69007;-33
2023/11/17 00:22:20;;;;;;;;;;;;;;;28.85;67.32;101283.06;5101500;27;66763;-33
2023/11/17 00:24:50;;;;;;;;;;;;;;;28.89;66.73;101295.16;5101444;27;69777;-35
2023/11/17 00:27:20;;;;;;;;;;;;;;;28.90;66.11;101302.22;5099338;27;66869;-32
2023/11/17 00:29:50;;;;;;;;;;;;;;;28.93;66.19;101298.28;5099380;27;70401;-32
2023/11/17 00:32:20;;;;;;;;;;;;;;;28.94;65.53;101303.47;5101135;27;66669;-34
2023/11/17 00:34:51;;;;;;;;;;;;;;;28.97;65.25;101302.25;5101217;27;69677;-33
2023/11/17 00:37:22;;;;;;;;;;;;;;;28.98;65.17;101308.50;5101035;27;64849;-34
2023/11/17 00:39:52;;;;;;;;;;;;;;;29.00;64.97;101309.13;5101042;27;70087;-33
2023/11/17 00:42:22;;;;;;;;;;;;;;;29.01;65.02;101313.50;5081731;27;66909;-33
2023/11/17 00:44:52;;;;;;;;;;;;;;;29.03;64.58;101316.84;5101117;27;69606;-35
2023/11/17 00:47:22;;;;;;;;;;;;;;;29.04;64.48;101334.75;5100020;27;67132;-33
2023/11/17 00:49:53;;;;;;;;;;;;;;;29.05;64.38;101329.16;5099594;27;70038;-33
2023/11/17 00:52:23;;;;;;;;;;;;;;;29.06;64.19;101332.66;5080541;27;66175;-35
2023/11/17 00:54:55;;;;;;;;;;;;;;;29.07;64.72;101318.97;5100354;27;70670;-33
2023/11/17 00:57:25;;;;;;;;;;;;;;;29.08;64.53;101320.63;5099663;27;66164;-33
2023/11/17 00:59:55;;;;;;;;;;;;;;;29.12;64.50;101318.41;5100513;27;70842;-34
2023/11/17 01:02:25;;;;;;;;;;;;;;;29.13;64.11;101325.47;5100738;27;65630;-33
2023/11/17 01:04:55;;;;;;;;;;;;;;;29.13;64.36;101328.16;5098060;27;69226;-34
2023/11/17 01:07:25;;;;;;;;;;;;;;;29.15;64.04;101328.81;5094704;27;66599;-32
2023/11/17 01:09:55;;;;;;;;;;;;;;;29.15;64.02;101323.41;5100763;27;70162;-34
2023/11/17 01:12:26;;;;;;;;;;;;;;;29.17;63.67;101332.16;5071670;27;66902;-34
2023/11/17 01:14:55;;;;;;;;;;;;;;;29.18;63.75;101336.50;5097507;27;70549;-34
2023/11/17 01:17:25;;;;;;;;;;;;;;;29.19;63.58;101346.28;5099105;27;66007;-33
2023/11/17 01:19:56;;;;;;;;;;;;;;;29.20;63.66;101353.38;5078499;27;69386;-35
2023/11/17 01:22:26;;;;;;;;;;;;;;;29.24;63.97;101357.34;5098914;27;65616;-34
2023/11/17 01:24:56;;;;;;;;;;;;;;;29.24;63.52;101362.72;5097418;27;70128;-33
2023/11/17 01:27:26;;;;;;;;;;;;;;;29.25;64.03;101364.38;5095848;27;65918;-33
2023/11/17 01:29:56;;;;;;;;;;;;;;;29.27;63.58;101375.84;5072890;28;69497;-33
2023/11/17 01:32:26;;;;;;;;;;;;;;;29.28;63.75;101374.84;5076093;27;66600;-33
2023/11/17 01:34:56;;;;;;;;;;;;;;;29.29;63.48;101381.91;5078979;27;69764;-33
2023/11/17 01:37:27;;;;;;;;;;;;;;;29.30;63.57;101397.06;5077655;28;67166;-33
2023/11/17 01:39:58;;;;;;;;;;;;;;;29.33;63.70;101393.97;5079138;27;70133;-33
2023/11/17 01:42:31;;;;;;;;;;;;;;;29.33;63.23;101395.84;5079294;27;66282;-35
2023/11/17 01:45:01;;;;;;;;;;;;;;;29.35;63.84;101408.13;5080447;27;70191;-35
2023/11/17 01:47:31;;;;;;;;;;;;;;;29.37;63.18;101403.38;5079479;28;65668;-34
2023/11/17 01:50:02;;;;;;;;;;;;;;;29.39;63.46;101409.41;5069020;27;69762;-35
2023/11/17 01:52:31;;;;;;;;;;;;;;;29.39;63.11;101404.00;5079091;28;66804;-33
2023/11/17 01:55:05;;;;;;;;;;;;;;;29.41;63.16;101392.97;5075717;27;69930;-33
2023/11/17 01:57:37;;;;;;;;;;;;;;;29.44;63.35;101399.84;5078618;27;66582;-34
2023/11/17 02:00:16;;;;;;;;;;;;;;;29.45;63.58;101407.78;5079752;27;70230;-34
2023/11/17 02:02:51;;;;;;;;;;;;;;;29.47;63.53;101408.41;5075786;27;67127;-34
2023/11/17 02:05:24;;;;;;;;;;;;;;;29.49;63.46;101410.91;5080827;27;69252;-34
2023/11/17 02:08:12;;;;;;;;;;;;;;;29.50;63.11;101401.75;5081129;27;66347;-34
2023/11/17 02:11:01;;;;;;;;;;;;;;;29.53;63.09;101404.06;5081943;27;70378;-33
2023/11/17 02:13:37;;;;;;;;;;;;;;;29.54;63.40;101405.75;5080725;27;66079;-33
2023/11/17 02:16:11;;;;;;;;;;;;;;;29.57;63.43;101394.53;5076477;27;70757;-34
2023/11/17 02:18:45;;;;;;;;;;;;;;;29.58;63.37;101401.59;5081801;27;66614;-34
2023/11/17 02:21:18;;;;;;;;;;;;;;;29.60;63.10;101394.13;5080111;28;70014;-34
2023/11/17 02:23:51;;;;;;;;;;;;;;;29.62;63.15;101392.09;5082214;27;66160;-34
2023/11/17 02:26:27;;;;;;;;;;;;;;;29.63;63.41;101382.97;5082091;27;70389;-33
2023/11/17 02:29:07;;;;;;;;;;;;;;;29.66;63.04;101387.97;5081548;27;66940;-34
2023/11/17 02:31:39;;;;;;;;;;;;;;;29.68;62.88;101375.09;5083150;27;69694;-33
2023/11/17 02:34:14;;;;;;;;;;;;;;;29.69;63.51;101371.34;5103549;27;66116;-35
2023/11/17 02:36:45;;;;;;;;;;;;;;;29.72;63.30;101375.50;5083862;27;70637;-34
2023/11/17 02:39:27;;;;;;;;;;;;;;;29.73;62.87;101367.22;5084865;27;67059;-34
2023/11/17 02:41:57;;;;;;;;;;;;;;;29.75;62.86;101364.28;5101537;27;70269;-34
2023/11/17 02:44:33;;;;;;;;;;;;;;;29.77;63.13;101346.81;5102002;27;65289;-35
2023/11/17 02:47:04;;;;;;;;;;;;;;;29.79;63.11;101347.47;5070443;27;71756;-33
2023/11/17 02:49:40;;;;;;;;;;;;;;;29.82;62.68;101338.13;5084436;27;65916;-34
2023/11/17 02:52:20;;;;;;;;;;;;;;;29.83;63.06;101346.00;5098687;27;70564;-34
2023/11/17 02:54:50;;;;;;;;;;;;;;;29.86;62.70;101338.53;5084546;27;66256;-35
2023/11/17 02:57:22;;;;;;;;;;;;;;;29.89;62.80;101335.44;5080740;27;70848;-33
2023/11/17 02:59:53;;;;;;;;;;;;;;;29.91;63.10;101341.47;5089347;27;64919;-34
2023/11/17 03:02:26;;;;;;;;;;;;;;;29.93;62.71;101334.00;5081650;27;69576;-36
2023/11/17 03:04:55;;;;;;;;;;;;;;;29.95;63.24;101332.75;5078518;27;66610;-34
2023/11/17 03:07:25;;;;;;;;;;;;;;;29.97;62.87;101340.66;5102251;27;70661;-35
2023/11/17 03:09:55;;;;;;;;;;;;;;;29.99;63.12;101333.19;5103230;27;65643;-35
2023/11/17 03:12:27;;;;;;;;;;;;;;;30.01;63.05;101320.28;5101280;27;70987;-36
2023/11/17 03:14:57;;;;;;;;;;;;;;;30.04;62.58;101325.28;5102732;27;66858;-34
2023/11/17 03:17:27;;;;;;;;;;;;;;;30.06;63.13;101315.09;5099722;27;69825;-34
2023/11/17 03:19:57;;;;;;;;;;;;;;;30.08;62.61;101310.31;5082962;27;66264;-34
2023/11/17 03:22:26;;;;;;;;;;;;;;;30.10;62.86;101312.81;5083369;27;70713;-35
2023/11/17 03:24:57;;;;;;;;;;;;;;;30.13;62.83;101307.81;5082543;27;66414;-34
2023/11/17 03:27:27;;;;;;;;;;;;;;;30.15;62.69;101308.47;5099510;27;70084;-36
2023/11/17 03:29:57;;;;;;;;;;;;;;;30.18;62.32;101297.22;5082301;27;66928;-34
2023/11/17 03:32:28;;;;;;;;;;;;;;;30.20;62.51;101297.88;5082274;27;70760;-34
2023/11/17 03:34:58;;;;;;;;;;;;;;;30.22;62.93;101284.97;5100988;27;65890;-34
2023/11/17 03:37:28;;;;;;;;;;;;;;;30.25;62.35;101279.13;5082703;27;69874;-34
2023/11/17 03:40:06;;;;;;;;;;;;;;;30.27;62.41;101282.47;5097859;27;65296;-34
2023/11/17 03:42:36;;;;;;;;;;;;;;;30.31;62.45;101271.25;5083946;27;69894;-34
2023/11/17 03:45:07;;;;;;;;;;;;;;;30.34;62.29;101268.13;5082601;27;66852;-35
2023/11/17 03:47:39;;;;;;;;;;;;;;;30.35;62.35;101262.50;5092855;27;69988;-34
2023/11/17 03:50:13;;;;;;;;;;;;;;;30.38;62.33;101258.56;5099679;27;66206;-35
2023/11/17 03:52:43;;;;;;;;;;;;;;;30.41;62.52;101255.44;5081082;27;70630;-33
2023/11/17 03:55:13;;;;;;;;;;;;;;;30.42;62.69;101247.13;5099696;27;66014;-34
2023/11/17 03:57:45;;;;;;;;;;;;;;;30.45;62.33;101241.28;5079072;27;68875;-34
2023/11/17 04:00:16;;;;;;;;;;;;;;;30.48;62.54;101234.63;5082764;27;67002;-32
2023/11/17 04:02:46;;;;;;;;;;;;;;;30.50;62.22;101222.50;5100286;27;71002;-34
2023/11/17 04:05:16;;;;;;;;;;;;;;;30.54;62.25;101227.53;5101812;27;66858;-32
2023/11/17 04:07:48;;;;;;;;;;;;;;;30.57;62.03;101222.53;5100357;27;70092;-34
2023/11/17 04:10:19;;;;;;;;;;;;;;;30.59;62.28;101220.44;5082823;27;67196;-35
2023/11/17 04:12:49;;;;;;;;;;;;;;;30.61;62.07;101218.34;5100510;27;70403;-34
2023/11/17 04:15:18;;;;;;;;;;;;;;;30.63;61.75;101210.84;5098431;27;66154;-33
2023/11/17 04:17:48;;;;;;;;;;;;;;;30.66;61.67;101205.00;5100420;27;69486;-34
2023/11/17 04:20:19;;;;;;;;;;;;;;;30.69;62.06;101204.59;5099351;27;65978;-35
2023/11/17 04:22:49;;;;;;;;;;;;;;;30.71;61.91;101202.50;5081659;27;69733;-33
2023/11/17 04:25:19;;;;;;;;;;;;;;;30.73;61.97;101191.47;5099552;27;66470;-35
2023/11/17 04:27:49;;;;;;;;;;;;;;;30.75;61.92;101175.81;5100734;27;69592;-35
2023/11/17 04:30:19;;;;;;;;;;;;;;;30.78;62.11;101163.72;5099184;27;66521;-36
2023/11/17 04:32:49;;;;;;;;;;;;;;;30.80;61.95;101167.09;5098934;27;70884;-35
2023/11/17 04:35:19;;;;;;;;;;;;;;;30.82;62.03;101159.59;5100109;27;65998;-34
2023/11/17 04:37:48;;;;;;;;;;;;;;;30.84;62.07;101158.34;5098232;27;70736;-35
2023/11/17 04:40:19;;;;;;;;;;;;;;;30.86;62.19;101155.41;5100861;27;66626;-35
2023/11/17 04:42:49;;;;;;;;;;;;;;;30.87;62.07;101162.47;5099966;27;70644;-34
2023/11/17 04:45:20;;;;;;;;;;;;;;;30.89;61.94;101165.81;5098029;27;66802;-36
2023/11/17 04:47:50;;;;;;;;;;;;;;;30.90;61.93;101162.91;5098428;27;70726;-35
2023/11/17 04:50:20;;;;;;;;;;;;;;;30.92;61.72;101159.97;5098946;27;65896;-35
2023/11/17 04:52:50;;;;;;;;;;;;;;;30.95;61.98;101159.53;5098635;27;69216;-35
2023/11/17 04:55:19;;;;;;;;;;;;;;;30.95;61.94;101154.09;5098946;27;66336;-34
2023/11/17 04:57:49;;;;;;;;;;;;;;;30.97;61.98;101162.88;5081729;27;69985;-34
2023/11/17 05:00:20;;;;;;;;;;;;;;;30.99;61.46;101165.38;5100005;27;65942;-35
2023/11/17 05:02:50;;;;;;;;;;;;;;;31.01;61.74;101168.69;5101438;27;69446;-34
2023/11/17 05:05:20;;;;;;;;;;;;;;;31.03;61.93;101159.28;5101429;27;66836;-33
2023/11/17 05:07:50;;;;;;;;;;;;;;;31.05;61.61;101149.06;5100160;27;70467;-34
2023/11/17 05:10:21;;;;;;;;;;;;;;;31.06;61.28;101139.88;5101367;27;66997;-35
2023/11/17 05:12:52;;;;;;;;;;;;;;;31.09;61.62;101139.50;5102350;27;69818;-34
2023/11/17 05:15:22;;;;;;;;;;;;;;;31.10;61.11;101141.13;5083057;27;66912;-34
2023/11/17 05:17:52;;;;;;;;;;;;;;;31.12;61.39;101133.63;5104964;27;70192;-34
2023/11/17 05:20:25;;;;;;;;;;;;;;;31.14;61.49;101126.09;5105332;27;66389;-34
2023/11/17 05:22:55;;;;;;;;;;;;;;;31.16;61.27;101121.31;5102709;27;70769;-35
2023/11/17 05:25:27;;;;;;;;;;;;;;;31.19;61.39;101114.63;5102658;27;66574;-33
2023/11/17 05:27:57;;;;;;;;;;;;;;;31.21;61.06;101114.41;5105427;27;70098;-35
2023/11/17 05:30:27;;;;;;;;;;;;;;;31.23;61.10;101109.59;5100810;27;65686;-33
2023/11/17 05:32:58;;;;;;;;;;;;;;;31.23;61.10;101107.75;5105085;27;70339;-34
2023/11/17 05:35:29;;;;;;;;;;;;;;;31.26;61.06;101111.84;5102727;27;66162;-34
2023/11/17 05:37:59;;;;;;;;;;;;;;;31.27;61.01;101108.13;5105260;27;70840;-35
2023/11/17 05:40:33;;;;;;;;;;;;;;;31.29;60.78;101100.63;5105373;27;67024;-33
2023/11/17 05:43:06;;;;;;;;;;;;;;;31.30;60.91;101102.25;5103927;27;70263;-34
2023/11/17 05:45:36;;;;;;;;;;;;;;;31.31;60.80;101096.59;5104659;27;66349;-33
2023/11/17 05:48:06;;;;;;;;;;;;;;;31.33;60.90;101090.97;5101020;27;70804;-33
2023/11/17 05:50:36;;;;;;;;;;;;;;;31.34;60.84;101089.91;5103778;27;66647;-35
2023/11/17 05:53:06;;;;;;;;;;;;;;;31.35;61.10;101094.31;5104974;27;69655;-33
2023/11/17 05:55:35;;;;;;;;;;;;;;;31.37;60.47;101084.09;5104294;27;65471;-35
2023/11/17 05:58:07;;;;;;;;;;;;;;;31.39;60.69;101079.28;5103866;27;69817;-33
2023/11/17 06:00:37;;;;;;;;;;;;;;;31.40;60.40;101080.97;5104894;27;67176;-33
2023/11/17 06:03:07;;;;;;;;;;;;;;;31.40;60.61;101070.13;5105230;27;69978;-33
2023/11/17 06:05:37;;;;;;;;;;;;;;;31.42;60.28;101068.00;5085799;27;67139;-32
2023/11/17 06:08:06;;;;;;;;;;;;;;;31.43;60.83;101074.28;5074624;27;69981;-33
2023/11/17 06:10:36;;;;;;;;;;;;;;;31.44;60.54;101065.91;5104040;27;66011;-34
2023/11/17 06:13:07;;;;;;;;;;;;;;;31.44;60.52;101065.91;5103199;27;70264;-35
2023/11/17 06:15:37;;;;;;;;;;;;;;;31.46;60.72;101055.69;5104578;27;66233;-34
2023/11/17 06:18:07;;;;;;;;;;;;;;;31.48;60.30;101055.44;5104871;27;69608;-33
2023/11/17 06:20:37;;;;;;;;;;;;;;;31.49;60.30;101047.09;5103651;27;66127;-34
2023/11/17 06:23:08;;;;;;;;;;;;;;;31.50;60.55;101047.94;5104018;27;69956;-33
2023/11/17 06:25:47;;;;;;;;;;;;;;;31.51;60.42;101045.03;5104584;27;66641;-34
2023/11/17 06:28:17;;;;;;;;;;;;;;;31.52;60.21;101046.66;5103099;27;70475;-33
2023/11/17 06:30:47;;;;;;;;;;;;;;;31.53;60.24;101032.03;5092273;27;66219;-33
2023/11/17 06:33:17;;;;;;;;;;;;;;;31.54;60.03;101035.63;5104463;27;70176;-34
2023/11/17 06:35:49;;;;;;;;;;;;;;;31.54;60.14;101039.16;5103258;27;66085;-34
2023/11/17 06:38:19;;;;;;;;;;;;;;;31.55;60.16;101038.09;5102633;27;69961;-35
2023/11/17 06:40:50;;;;;;;;;;;;;;;31.55;60.18;101029.94;5103502;27;64983;-34
2023/11/17 06:43:20;;;;;;;;;;;;;;;31.57;60.04;101027.84;5103999;27;69889;-35
2023/11/17 06:45:52;;;;;;;;;;;;;;;31.56;60.09;101023.47;5104321;27;65168;-35
2023/11/17 06:48:24;;;;;;;;;;;;;;;31.58;59.92;101013.25;5084344;27;68998;-32
2023/11/17 06:51:01;;;;;;;;;;;;;;;31.57;59.88;101011.59;5102415;27;66795;-33
2023/11/17 06:53:33;;;;;;;;;;;;;;;31.60;59.93;101015.75;5103882;27;70563;-33
2023/11/17 06:56:03;;;;;;;;;;;;;;;31.61;59.98;101001.94;5102295;27;66025;-35
2023/11/17 06:58:34;;;;;;;;;;;;;;;31.63;60.13;101003.63;5104231;27;70403;-35
2023/11/17 07:01:04;;;;;;;;;;;;;;;31.64;59.79;100997.97;5102734;27;66505;-35
2023/11/17 07:03:38;;;;;;;;;;;;;;;31.65;59.86;100996.06;5103070;27;70421;-33
2023/11/17 07:06:08;;;;;;;;;;;;;;;31.67;60.06;100988.53;5103274;27;66418;-34
2023/11/17 07:08:41;;;;;;;;;;;;;;;31.67;59.86;100986.66;5101650;27;69215;-34
2023/11/17 07:11:11;;;;;;;;;;;;;;;31.68;59.68;100985.63;5103400;27;65805;-33
2023/11/17 07:13:41;;;;;;;;;;;;;;;31.69;59.72;100986.44;5103294;27;70050;-33
2023/11/17 07:16:18;;;;;;;;;;;;;;;31.70;60.04;100982.69;5100863;27;67198;-34
2023/11/17 07:18:48;;;;;;;;;;;;;;;31.72;59.78;100980.56;5102828;27;70359;-34
2023/11/17 07:21:18;;;;;;;;;;;;;;;31.71;59.99;100981.66;5084851;27;66475;-33
2023/11/17 07:23:49;;;;;;;;;;;;;;;31.73;59.79;100979.50;5101272;27;70868;-34
2023/11/17 07:26:20;;;;;;;;;;;;;;;31.74;59.84;100983.91;5103196;27;67103;-34
2023/11/17 07:28:50;;;;;;;;;;;;;;;31.74;59.76;100978.47;5101803;27;70128;-34
2023/11/17 07:31:21;;;;;;;;;;;;;;;31.74;59.85;100978.47;5102465;27;65548;-33
2023/11/17 07:33:51;;;;;;;;;;;;;;;31.76;59.87;100974.50;5102797;27;69753;-33
2023/11/17 07:36:23;;;;;;;;;;;;;;;31.75;60.07;100964.69;5102931;27;66419;-34
2023/11/17 07:38:55;;;;;;;;;;;;;;;31.77;59.99;100972.59;5084412;27;70420;-33
2023/11/17 07:41:25;;;;;;;;;;;;;;;31.77;59.70;100961.75;5102300;27;66673;-33
2023/11/17 07:43:56;;;;;;;;;;;;;;;31.78;59.82;100958.81;5102416;27;69902;-33
2023/11/17 07:46:27;;;;;;;;;;;;;;;31.78;59.79;100957.97;5103531;27;66442;-35
2023/11/17 07:48:57;;;;;;;;;;;;;;;31.79;59.85;100948.81;5101904;27;70351;-33
2023/11/17 07:51:27;;;;;;;;;;;;;;;31.80;59.68;100955.88;5101742;27;66242;-33
2023/11/17 07:53:57;;;;;;;;;;;;;;;31.80;59.85;100951.28;5102411;27;70709;-34
2023/11/17 07:56:27;;;;;;;;;;;;;;;31.81;59.93;100946.69;5101513;27;65722;-33
2023/11/17 07:59:03;;;;;;;;;;;;;;;31.84;59.46;100951.66;5100706;27;70444;-33
2023/11/17 08:01:33;;;;;;;;;;;;;;;31.84;59.94;100951.66;5102113;27;66901;-34
2023/11/17 08:04:03;;;;;;;;;;;;;;;31.85;59.81;100937.06;5102232;27;70328;-33
2023/11/17 08:06:35;;;;;;;;;;;;;;;31.87;59.74;100940.34;5101228;27;66358;-33
2023/11/17 08:09:09;;;;;;;;;;;;;;;31.89;59.82;100959.94;5102741;27;70349;-34
2023/11/17 08:11:40;;;;;;;;;;;;;;;31.90;59.56;100945.34;5102378;27;66947;-34
2023/11/17 08:14:10;;;;;;;;;;;;;;;31.91;59.66;100944.31;5101686;27;70083;-33
2023/11/17 08:16:40;;;;;;;;;;;;;;;31.93;59.87;100942.22;5103062;27;66216;-34
2023/11/17 08:19:11;;;;;;;;;;;;;;;31.93;59.87;100955.78;5102622;27;69318;-34
2023/11/17 08:21:54;;;;;;;;;;;;;;;31.95;59.64;100953.63;5103030;27;66038;-33
2023/11/17 08:24:25;;;;;;;;;;;;;;;31.96;59.67;100951.78;5103046;27;69641;-34
2023/11/17 08:26:55;;;;;;;;;;;;;;;31.96;59.69;100960.75;5084080;27;66050;-33
2023/11/17 08:29:26;;;;;;;;;;;;;;;31.97;59.68;100956.97;5102691;27;70555;-35
2023/11/17 08:31:56;;;;;;;;;;;;;;;31.97;59.49;100962.38;5103034;27;66905;-34
2023/11/17 08:34:26;;;;;;;;;;;;;;;31.98;59.64;100957.78;5101367;27;70083;-34
2023/11/17 08:36:56;;;;;;;;;;;;;;;31.99;59.61;100957.56;5102863;27;65816;-34
2023/11/17 08:39:25;;;;;;;;;;;;;;;32.00;59.86;100955.69;5102838;27;70613;-33
2023/11/17 08:41:57;;;;;;;;;;;;;;;32.01;59.53;100955.47;5100212;27;66501;-34
2023/11/17 08:44:27;;;;;;;;;;;;;;;32.01;59.67;100951.91;5102105;27;69657;-34
2023/11/17 08:46:59;;;;;;;;;;;;;;;32.01;59.65;100952.75;5101917;27;66511;-34
2023/11/17 08:49:29;;;;;;;;;;;;;;;32.02;59.59;100964.44;5101466;27;70097;-33
2023/11/17 08:51:59;;;;;;;;;;;;;;;32.02;59.58;100953.59;5084031;27;66634;-34
2023/11/17 08:54:29;;;;;;;;;;;;;;;32.02;59.40;100951.69;5102000;27;68961;-34
2023/11/17 08:56:59;;;;;;;;;;;;;;;32.04;59.35;100951.47;5101860;27;66304;-33
2023/11/17 08:59:29;;;;;;;;;;;;;;;32.04;59.20;100957.72;5102321;27;69971;-34
2023/11/17 09:01:59;;;;;;;;;;;;;;;32.03;59.39;100953.34;5101761;27;66141;-34
2023/11/17 09:04:29;;;;;;;;;;;;;;;32.04;59.39;100957.72;5101799;27;69717;-33
2023/11/17 09:06:59;;;;;;;;;;;;;;;32.04;59.28;100968.59;5102775;27;66331;-33
2023/11/17 09:09:30;;;;;;;;;;;;;;;32.04;59.29;100968.59;5102430;27;69542;-34
2023/11/17 09:12:00;;;;;;;;;;;;;;;32.03;59.56;100980.47;5102400;27;66827;-34
2023/11/17 09:14:31;;;;;;;;;;;;;;;32.03;59.39;100972.34;5101483;27;70490;-33
2023/11/17 09:17:06;;;;;;;;;;;;;;;32.03;59.14;100977.75;5101923;27;67913;-34
2023/11/17 09:19:38;;;;;;;;;;;;;;;31.66;62.50;100970.63;5100069;27;70336;-35
2023/11/17 09:22:08;;;;;;;;;;;;;;;31.52;63.96;100986.19;5081754;27;64817;-33
2023/11/17 09:24:38;;;;;;;;;;;;;;;31.45;65.02;100986.22;5070750;27;70110;-34
2023/11/17 09:27:10;;;;;;;;;;;;;;;31.67;64.08;100975.00;5094136;27;65938;-34
2023/11/17 09:29:40;;;;;;;;;;;;;;;31.78;63.45;100975.06;5101519;27;70232;-35
2023/11/17 09:32:10;;;;;;;;;;;;;;;31.85;63.47;100975.03;5101327;27;66843;-34
2023/11/17 09:34:40;;;;;;;;;;;;;;;31.88;63.63;100969.16;5096949;27;70144;-34
2023/11/17 09:37:11;;;;;;;;;;;;;;;31.91;63.22;100984.16;5102385;27;67020;-33
2023/11/17 09:39:41;;;;;;;;;;;;;;;31.91;62.94;100979.56;5100503;27;69195;-34
2023/11/17 09:42:12;;;;;;;;;;;;;;;31.93;62.93;100972.06;5101356;27;65454;-34
2023/11/17 09:44:43;;;;;;;;;;;;;;;31.93;62.91;100976.63;5083413;27;69990;-34
2023/11/17 09:47:21;;;;;;;;;;;;;;;31.93;62.99;100974.75;5101423;27;65731;-33
2023/11/17 09:49:53;;;;;;;;;;;;;;;31.94;62.85;100978.31;5088760;27;70303;-34
2023/11/17 09:52:24;;;;;;;;;;;;;;;31.94;62.73;100987.25;5100604;27;66213;-34
2023/11/17 09:54:54;;;;;;;;;;;;;;;31.94;62.83;100984.56;5101105;27;69922;-34
2023/11/17 09:57:24;;;;;;;;;;;;;;;31.93;62.83;100993.75;5101868;27;66949;-34
2023/11/17 09:59:56;;;;;;;;;;;;;;;31.94;62.59;100989.97;5099523;27;69772;-33
2023/11/17 10:02:28;;;;;;;;;;;;;;;31.94;62.12;100994.56;5103689;27;65618;-34
2023/11/17 10:04:59;;;;;;;;;;;;;;;31.95;62.06;101005.19;5100569;27;69259;-34
2023/11/17 10:07:29;;;;;;;;;;;;;;;31.96;61.51;101004.16;5103221;27;66636;-33
2023/11/17 10:10:04;;;;;;;;;;;;;;;31.95;61.27;101007.91;5104591;27;70595;-34
2023/11/17 10:12:34;;;;;;;;;;;;;;;31.95;61.49;101007.91;5105516;27;66585;-34
2023/11/17 10:15:08;;;;;;;;;;;;;;;31.95;61.39;101007.91;5103940;27;69939;-34
2023/11/17 10:17:40;;;;;;;;;;;;;;;31.87;61.80;101016.28;5103277;27;66126;-34
2023/11/17 10:20:17;;;;;;;;;;;;;;;31.26;64.04;100968.22;5101986;27;69718;-33
2023/11/17 10:22:50;;;;;;;;;;;;;;;31.45;65.24;101024.19;5089740;27;67245;-33
2023/11/17 10:25:24;;;;;;;;;;;;;;;31.41;65.65;101025.69;5068809;27;69829;-33
2023/11/17 10:27:54;;;;;;;;;;;;;;;31.33;66.15;101023.22;5086729;27;66878;-35
2023/11/17 10:30:30;;;;;;;;;;;;;;;31.31;66.56;101028.84;5085168;27;70236;-33
2023/11/17 10:33:06;;;;;;;;;;;;;;;31.29;67.01;101036.38;5090192;27;65824;-35
2023/11/17 10:36:00;;;;;;;;;;;;;;;31.27;66.84;101032.22;5089977;27;70975;-34
2023/11/17 10:38:34;;;;;;;;;;;;;;;31.26;66.99;101035.97;5094149;27;66784;-37
2023/11/17 10:41:17;;;;;;;;;;;;;;;31.27;66.87;101043.06;5087528;27;69699;-33
2023/11/17 10:43:51;;;;;;;;;;;;;;;31.26;67.16;101046.81;5087513;27;67863;-35
2023/11/17 10:46:22;;;;;;;;;;;;;;;31.27;66.68;101052.03;5086860;27;69648;-34
2023/11/17 10:48:55;;;;;;;;;;;;;;;31.24;66.65;101054.34;5095170;27;67000;-34
2023/11/17 10:51:26;;;;;;;;;;;;;;;31.24;67.30;101054.34;5087808;27;69874;-35
2023/11/17 10:54:03;;;;;;;;;;;;;;;31.25;67.12;101056.00;5093024;27;65984;-35
2023/11/17 10:56:34;;;;;;;;;;;;;;;31.24;67.13;101059.78;5091666;27;70300;-33
2023/11/17 10:59:04;;;;;;;;;;;;;;;31.25;67.13;101061.44;5098242;27;65712;-37
2023/11/17 11:01:38;;;;;;;;;;;;;;;31.25;67.41;101056.00;5091498;27;68261;-36
2023/11/17 11:04:09;;;;;;;;;;;;;;;31.26;67.29;101063.06;5089971;27;66026;-35
2023/11/17 11:06:42;;;;;;;;;;;;;;;31.24;67.47;101057.06;5088813;27;69988;-35
2023/11/17 11:09:17;;;;;;;;;;;;;;;31.24;67.13;101066.03;5093257;27;65468;-33
2023/11/17 11:11:50;;;;;;;;;;;;;;;31.25;67.16;101069.56;5091419;27;70512;-34
2023/11/17 11:14:21;;;;;;;;;;;;;;;31.24;66.88;101076.03;5088230;27;66629;-33
2023/11/17 11:16:52;;;;;;;;;;;;;;;31.21;67.20;101081.91;5090488;27;68917;-34
2023/11/17 11:19:25;;;;;;;;;;;;;;;31.20;68.21;101091.06;5088896;27;66809;-35
2023/11/17 11:22:04;;;;;;;;;;;;;;;31.21;68.73;101104.41;5089922;27;69770;-35
2023/11/17 11:24:34;;;;;;;;;;;;;;;31.21;68.64;101098.16;5084884;27;66585;-34
2023/11/17 11:27:09;;;;;;;;;;;;;;;31.25;68.38;101093.94;5098339;27;69943;-33
2023/11/17 11:29:41;;;;;;;;;;;;;;;31.38;67.26;101115.59;5093550;27;66318;-34
2023/11/17 11:32:13;;;;;;;;;;;;;;;31.47;66.39;101114.28;5087434;27;70440;-34
2023/11/17 11:34:44;;;;;;;;;;;;;;;31.53;66.29;101112.56;5092281;27;66811;-34
2023/11/17 11:37:13;;;;;;;;;;;;;;;31.58;65.58;101116.28;5089318;27;70287;-33
2023/11/17 11:39:43;;;;;;;;;;;;;;;31.61;65.13;101118.53;5087833;27;66190;-35
2023/11/17 11:42:16;;;;;;;;;;;;;;;31.65;65.15;101126.25;5083184;27;70090;-34
2023/11/17 11:44:46;;;;;;;;;;;;;;;31.66;64.93;101122.50;5071168;27;65921;-34
2023/11/17 11:47:16;;;;;;;;;;;;;;;31.66;64.68;101128.75;5087251;27;69884;-34
2023/11/17 11:49:49;;;;;;;;;;;;;;;31.67;64.72;101129.56;5090989;27;66191;-34
2023/11/17 11:52:23;;;;;;;;;;;;;;;31.69;64.46;101132.91;5082839;27;69817;-34
2023/11/17 11:54:55;;;;;;;;;;;;;;;31.70;64.41;101142.69;5076354;27;67207;-34
2023/11/17 11:57:25;;;;;;;;;;;;;;;31.69;64.19;101143.75;5086507;27;69731;-35
2023/11/17 12:00:14;;;;;;;;;;;;;;;31.68;64.26;101148.34;5094255;27;67161;-35
2023/11/17 12:02:54;;;;;;;;;;;;;;;31.69;64.17;101151.88;5089801;27;68982;-35
2023/11/17 12:05:28;;;;;;;;;;;;;;;31.70;64.23;101158.97;5103393;27;66151;-34
2023/11/17 12:08:01;;;;;;;;;;;;;;;31.69;64.18;101160.03;5102889;27;69505;-37
2023/11/17 12:10:41;;;;;;;;;;;;;;;31.67;64.14;101176.50;5101648;27;66473;-35
2023/11/17 12:13:29;;;;;;;;;;;;;;;31.68;63.85;101180.88;5102288;27;70194;-34
2023/11/17 12:16:01;;;;;;;;;;;;;;;31.67;63.71;101179.22;5102450;27;67216;-34
2023/11/17 12:18:32;;;;;;;;;;;;;;;31.67;63.69;101181.09;5102338;27;71721;-35
2023/11/17 12:21:21;;;;;;;;;;;;;;;31.66;63.71;101191.13;5102574;27;67096;-34
2023/11/17 12:23:51;;;;;;;;;;;;;;;31.65;63.60;101196.75;5100799;27;70050;-34
2023/11/17 12:26:22;;;;;;;;;;;;;;;31.63;63.59;101194.28;5101431;27;66620;-35
2023/11/17 12:28:55;;;;;;;;;;;;;;;31.63;63.91;101198.88;5101710;27;70706;-36
2023/11/17 12:31:25;;;;;;;;;;;;;;;31.63;63.98;101209.72;5103022;27;65773;-35
2023/11/17 12:33:56;;;;;;;;;;;;;;;31.61;63.73;101207.22;5101530;27;70321;-34
2023/11/17 12:36:25;;;;;;;;;;;;;;;31.61;63.85;101212.63;5103418;27;65498;-35
2023/11/17 12:38:56;;;;;;;;;;;;;;;31.61;63.80;101212.63;5089726;27;69364;-34
2023/11/17 12:41:27;;;;;;;;;;;;;;;31.60;64.00;101217.22;5084057;27;66289;-34
2023/11/17 12:43:58;;;;;;;;;;;;;;;31.60;63.68;101227.25;5103250;27;69770;-34
2023/11/17 12:46:30;;;;;;;;;;;;;;;31.58;63.53;101222.03;5103184;27;65562;-36
2023/11/17 12:49:05;;;;;;;;;;;;;;;31.58;63.51;101224.75;5100979;27;69974;-36
2023/11/17 12:51:35;;;;;;;;;;;;;;;31.56;63.34;101215.97;5102524;27;66136;-35
2023/11/17 12:54:05;;;;;;;;;;;;;;;31.55;63.12;101208.91;5084481;27;70588;-35
2023/11/17 12:56:35;;;;;;;;;;;;;;;31.55;63.41;101218.94;5101444;27;66097;-35
2023/11/17 12:59:06;;;;;;;;;;;;;;;31.53;63.39;101221.84;5095844;27;70733;-34